sensor_id;sensor_type;location;lat;lon;timestamp;pressure;altitude;pressure_sealevel;temperature;humidity
44079;BME280;29744;49.078;12.878;2023-11-21T00:03:51;95869.41;;;16.16;38.60
44079;BME280;29744;49.078;12.878;2023-11-21T00:08:54;95867.06;;;16.14;38.44
44079;BME280;29744;49.078;12.878;2023-11-21T00:13:55;95859.28;;;16.13;38.48
44079;BME280;29744;49.078;12.878;2023-11-21T00:18:55;95857.28;;;16.09;38.58
44079;BME280;29744;49.078;12.878;2023-11-21T00:23:55;95863.03;;;16.08;38.56
44079;BME280;29744;49.078;12.878;2023-11-21T00:28:56;95849.06;;;16.06;38.58
44079;BME280;29744;49.078;12.878;2023-11-21T00:33:56;95841.31;;;16.04;38.68
44079;BME280;29744;49.078;12.878;2023-11-21T00:38:57;95844.34;;;16.03;38.73
44079;BME280;29744;49.078;12.878;2023-11-21T00:43:57;95843.91;;;16.01;38.90
44079;BME280;29744;49.078;12.878;2023-11-21T00:48:57;95841.56;;;15.99;38.87
44079;BME280;29744;49.078;12.878;2023-11-21T00:53:58;95846.88;;;15.96;38.70
44079;BME280;29744;49.078;12.878;2023-11-21T00:58:58;95849.94;;;15.94;38.86
44079;BME280;29744;49.078;12.878;2023-11-21T01:03:59;95835.53;;;15.90;39.11
44079;BME280;29744;49.078;12.878;2023-11-21T01:08:59;95835.88;;;15.89;38.76
44079;BME280;29744;49.078;12.878;2023-11-21T01:13:59;95836.22;;;15.87;38.83
44079;BME280;29744;49.078;12.878;2023-11-21T01:19:00;95838.47;;;15.85;38.55
44079;BME280;29744;49.078;12.878;2023-11-21T01:24:01;95834.22;;;15.84;39.04
44079;BME280;29744;49.078;12.878;2023-11-21T01:29:02;95823.75;;;15.83;38.96
44079;BME280;29744;49.078;12.878;2023-11-21T01:34:03;95829.50;;;15.81;39.20
44079;BME280;29744;49.078;12.878;2023-11-21T01:39:04;95823.31;;;15.81;39.09
44079;BME280;29744;49.078;12.878;2023-11-21T01:44:08;95827.13;;;15.80;38.98
44079;BME280;29744;49.078;12.878;2023-11-21T01:49:09;95826.66;;;15.77;38.79
44079;BME280;29744;49.078;12.878;2023-11-21T01:54:13;95826.66;;;15.77;39.02
44079;BME280;29744;49.078;12.878;2023-11-21T01:59:20;95830.50;;;15.76;38.79
44079;BME280;29744;49.078;12.878;2023-11-21T02:04:24;95836.59;;;15.73;39.34
44079;BME280;29744;49.078;12.878;2023-11-21T02:09:25;95830.41;;;15.73;38.96
44079;BME280;29744;49.078;12.878;2023-11-21T02:14:27;95826.47;;;15.70;38.90
44079;BME280;29744;49.078;12.878;2023-11-21T02:19:28;95832.22;;;15.69;39.23
44079;BME280;29744;49.078;12.878;2023-11-21T02:24:29;95823.34;;;15.68;38.88
44079;BME280;29744;49.078;12.878;2023-11-21T02:29:30;95814.78;;;15.66;39.02
44079;BME280;29744;49.078;12.878;2023-11-21T02:34:30;95814.00;;;15.66;38.83
44079;BME280;29744;49.078;12.878;2023-11-21T02:39:31;95818.63;;;15.65;39.21
44079;BME280;29744;49.078;12.878;2023-11-21T02:44:31;95824.38;;;15.64;38.90
44079;BME280;29744;49.078;12.878;2023-11-21T02:49:32;95818.19;;;15.63;39.28
44079;BME280;29744;49.078;12.878;2023-11-21T02:54:34;95815.81;;;15.62;38.95
44079;BME280;29744;49.078;12.878;2023-11-21T02:59:36;95814.25;;;15.61;39.25
44079;BME280;29744;49.078;12.878;2023-11-21T03:04:36;95815.38;;;15.60;39.28
44079;BME280;29744;49.078;12.878;2023-11-21T03:09:37;95816.84;;;15.57;39.21
44079;BME280;29744;49.078;12.878;2023-11-21T03:14:38;95816.84;;;15.57;39.36
44079;BME280;29744;49.078;12.878;2023-11-21T03:19:38;95806.03;;;15.57;39.38
44079;BME280;29744;49.078;12.878;2023-11-21T03:24:39;95817.19;;;15.56;39.01
44079;BME280;29744;49.078;12.878;2023-11-21T03:29:40;95815.63;;;15.55;39.59
44079;BME280;29744;49.078;12.878;2023-11-21T03:34:54;95819.81;;;15.52;39.54
44079;BME280;29744;49.078;12.878;2023-11-21T03:39:56;95822.50;;;15.52;39.59
44079;BME280;29744;49.078;12.878;2023-11-21T03:44:56;95818.22;;;15.51;39.18
44079;BME280;29744;49.078;12.878;2023-11-21T03:49:57;95810.47;;;15.50;39.65
44079;BME280;29744;49.078;12.878;2023-11-21T03:54:57;95814.31;;;15.49;39.28
44079;BME280;29744;49.078;12.878;2023-11-21T03:59:57;95817.34;;;15.47;39.35
44079;BME280;29744;49.078;12.878;2023-11-21T04:04:58;95813.88;;;15.46;39.77
44079;BME280;29744;49.078;12.878;2023-11-21T04:09:59;95809.25;;;15.47;39.15
44079;BME280;29744;49.078;12.878;2023-11-21T04:14:59;95810.38;;;15.46;39.34
44079;BME280;29744;49.078;12.878;2023-11-21T04:20:00;95813.88;;;15.46;39.34
44079;BME280;29744;49.078;12.878;2023-11-21T04:25:00;95816.13;;;15.44;39.63
44079;BME280;29744;49.078;12.878;2023-11-21T04:30:01;95813.41;;;15.44;39.44
44079;BME280;29744;49.078;12.878;2023-11-21T04:35:02;95819.97;;;15.43;39.39
44079;BME280;29744;49.078;12.878;2023-11-21T04:40:04;95817.25;;;15.43;39.41
44079;BME280;29744;49.078;12.878;2023-11-21T04:45:07;95817.59;;;15.42;39.71
44079;BME280;29744;49.078;12.878;2023-11-21T04:50:11;95817.16;;;15.40;39.36
44079;BME280;29744;49.078;12.878;2023-11-21T04:55:12;95817.50;;;15.38;39.52
44079;BME280;29744;49.078;12.878;2023-11-21T05:00:12;95811.31;;;15.38;39.75
44079;BME280;29744;49.078;12.878;2023-11-21T05:05:13;95801.63;;;15.37;39.52
44079;BME280;29744;49.078;12.878;2023-11-21T05:10:14;95813.22;;;15.37;39.50
44079;BME280;29744;49.078;12.878;2023-11-21T05:15:15;95809.28;;;15.35;39.63
44079;BME280;29744;49.078;12.878;2023-11-21T05:20:16;95823.94;;;15.34;39.41
44079;BME280;29744;49.078;12.878;2023-11-21T05:25:21;95823.16;;;15.33;39.75
44079;BME280;29744;49.078;12.878;2023-11-21T05:30:21;95829.69;;;15.32;39.40
44079;BME280;29744;49.078;12.878;2023-11-21T05:35:22;95823.84;;;15.30;39.76
44079;BME280;29744;49.078;12.878;2023-11-21T05:40:22;95829.22;;;15.30;39.85
44079;BME280;29744;49.078;12.878;2023-11-21T05:45:22;95831.16;;;15.30;39.92
44079;BME280;29744;49.078;12.878;2023-11-21T05:50:23;95840.38;;;15.29;39.91
44079;BME280;29744;49.078;12.878;2023-11-21T05:55:23;95832.63;;;15.27;39.63
44079;BME280;29744;49.078;12.878;2023-11-21T06:00:25;95841.50;;;15.28;39.85
44079;BME280;29744;49.078;12.878;2023-11-21T06:05:28;95850.75;;;15.27;39.83
44079;BME280;29744;49.078;12.878;2023-11-21T06:10:28;95860.75;;;15.26;39.54
44079;BME280;29744;49.078;12.878;2023-11-21T06:15:29;95856.81;;;15.24;39.95
44079;BME280;29744;49.078;12.878;2023-11-21T06:20:29;95868.41;;;15.24;39.95
44079;BME280;29744;49.078;12.878;2023-11-21T06:25:30;95872.25;;;15.23;40.05
44079;BME280;29744;49.078;12.878;2023-11-21T06:30:33;95883.84;;;15.24;39.55
44079;BME280;29744;49.078;12.878;2023-11-21T06:35:33;95884.19;;;15.22;39.69
44079;BME280;29744;49.078;12.878;2023-11-21T06:40:35;95888.47;;;15.23;39.55
44079;BME280;29744;49.078;12.878;2023-11-21T06:45:35;95886.09;;;15.22;39.69
44079;BME280;29744;49.078;12.878;2023-11-21T06:50:35;95893.41;;;15.21;39.72
44079;BME280;29744;49.078;12.878;2023-11-21T06:55:36;95890.28;;;15.19;40.16
44079;BME280;29744;49.078;12.878;2023-11-21T07:00:37;95895.66;;;15.19;39.81
44079;BME280;29744;49.078;12.878;2023-11-21T07:05:37;95897.59;;;15.19;39.80
44079;BME280;29744;49.078;12.878;2023-11-21T07:10:38;95899.94;;;15.20;39.63
44079;BME280;29744;49.078;12.878;2023-11-21T07:15:38;95899.16;;;15.20;39.69
44079;BME280;29744;49.078;12.878;2023-11-21T07:20:38;95907.59;;;15.18;40.07
44079;BME280;29744;49.078;12.878;2023-11-21T07:25:39;95908.72;;;15.17;39.79
44079;BME280;29744;49.078;12.878;2023-11-21T07:30:42;95923.03;;;15.18;39.57
44079;BME280;29744;49.078;12.878;2023-11-21T07:35:43;95928.41;;;15.18;39.82
44079;BME280;29744;49.078;12.878;2023-11-21T07:40:43;95925.72;;;15.18;39.82
44079;BME280;29744;49.078;12.878;2023-11-21T07:45:43;95927.63;;;15.17;39.67
44079;BME280;29744;49.078;12.878;2023-11-21T07:50:44;95933.81;;;15.18;39.75
44079;BME280;29744;49.078;12.878;2023-11-21T07:55:44;95929.22;;;15.18;39.75
44079;BME280;29744;49.078;12.878;2023-11-21T08:00:45;95927.63;;;15.17;39.45
44079;BME280;29744;49.078;12.878;2023-11-21T08:05:45;95930.34;;;15.17;39.46
44079;BME280;29744;49.078;12.878;2023-11-21T08:10:46;95933.81;;;15.18;39.57
44079;BME280;29744;49.078;12.878;2023-11-21T08:15:57;95936.88;;;15.16;40.04
44079;BME280;29744;49.078;12.878;2023-11-21T08:21:01;95938.00;;;15.15;39.97
44079;BME280;29744;49.078;12.878;2023-11-21T08:26:04;95944.19;;;15.16;39.72
44079;BME280;29744;49.078;12.878;2023-11-21T08:31:05;95951.59;;;15.19;39.54
44079;BME280;29744;49.078;12.878;2023-11-21T08:36:09;95949.25;;;15.17;39.64
44079;BME280;29744;49.078;12.878;2023-11-21T08:41:11;95947.66;;;15.16;39.84
44079;BME280;29744;49.078;12.878;2023-11-21T08:46:12;95948.00;;;15.14;39.45
44079;BME280;29744;49.078;12.878;2023-11-21T08:51:12;95949.13;;;15.13;39.99
44079;BME280;29744;49.078;12.878;2023-11-21T08:56:14;95966.91;;;15.14;40.10
44079;BME280;29744;49.078;12.878;2023-11-21T09:01:14;95974.56;;;15.12;39.55
44079;BME280;29744;49.078;12.878;2023-11-21T09:06:15;95974.91;;;15.11;39.66
44079;BME280;29744;49.078;12.878;2023-11-21T09:11:15;95979.19;;;15.12;39.75
44079;BME280;29744;49.078;12.878;2023-11-21T09:16:15;95979.19;;;15.12;40.05
44079;BME280;29744;49.078;12.878;2023-11-21T09:21:16;95985.38;;;15.12;39.61
44079;BME280;29744;49.078;12.878;2023-11-21T09:26:16;95991.91;;;15.11;39.59
44079;BME280;29744;49.078;12.878;2023-11-21T09:31:17;95986.50;;;15.11;40.05
44079;BME280;29744;49.078;12.878;2023-11-21T09:36:17;95983.00;;;15.11;39.73
44079;BME280;29744;49.078;12.878;2023-11-21T09:41:29;95991.09;;;15.11;39.96
44079;BME280;29744;49.078;12.878;2023-11-21T09:46:35;95991.91;;;15.11;40.08
44079;BME280;29744;49.078;12.878;2023-11-21T09:51:42;95991.22;;;15.14;39.49
44079;BME280;29744;49.078;12.878;2023-11-21T09:56:43;95984.69;;;15.16;39.62
44079;BME280;29744;49.078;12.878;2023-11-21T10:01:43;95980.06;;;15.16;39.57
44079;BME280;29744;49.078;12.878;2023-11-21T10:06:45;95981.66;;;15.17;39.95
44079;BME280;29744;49.078;12.878;2023-11-21T10:11:48;95982.44;;;15.18;39.81
44079;BME280;29744;49.078;12.878;2023-11-21T10:16:49;95981.66;;;15.17;39.92
44079;BME280;29744;49.078;12.878;2023-11-21T10:21:51;95983.22;;;15.18;39.96
44079;BME280;29744;49.078;12.878;2023-11-21T10:26:51;95982.09;;;15.19;39.92
44079;BME280;29744;49.078;12.878;2023-11-21T10:31:53;95980.53;;;15.18;39.38
44079;BME280;29744;49.078;12.878;2023-11-21T10:36:57;95979.75;;;15.18;39.67
44079;BME280;29744;49.078;12.878;2023-11-21T10:41:58;95985.47;;;15.16;39.22
44079;BME280;29744;49.078;12.878;2023-11-21T10:47:00;95988.06;;;15.12;38.96
44079;BME280;29744;49.078;12.878;2023-11-21T10:52:01;95988.28;;;15.07;38.56
44079;BME280;29744;49.078;12.878;2023-11-21T10:57:03;95985.59;;;15.07;38.99
44079;BME280;29744;49.078;12.878;2023-11-21T11:02:34;95988.19;;;15.04;38.77
44079;BME280;29744;49.078;12.878;2023-11-21T11:07:35;95983.56;;;15.04;39.22
44079;BME280;29744;49.078;12.878;2023-11-21T11:12:37;95986.72;;;15.06;38.72
44079;BME280;29744;49.078;12.878;2023-11-21T11:17:38;95986.38;;;15.08;39.00
44079;BME280;29744;49.078;12.878;2023-11-21T11:23:10;95969.72;;;15.06;38.94
44079;BME280;29744;49.078;12.878;2023-11-21T11:28:20;95978.28;;;15.08;38.98
44079;BME280;29744;49.078;12.878;2023-11-21T11:38:46;95980.63;;;15.09;38.75
44079;BME280;29744;49.078;12.878;2023-11-21T11:43:46;95982.22;;;15.10;38.86
44079;BME280;29744;49.078;12.878;2023-11-21T11:48:48;95981.88;;;15.12;39.05
44079;BME280;29744;49.078;12.878;2023-11-21T11:53:48;95981.88;;;15.12;39.20
44079;BME280;29744;49.078;12.878;2023-11-21T11:58:50;95983.47;;;15.13;39.11
44079;BME280;29744;49.078;12.878;2023-11-21T12:09:21;95975.69;;;15.11;39.10
44079;BME280;29744;49.078;12.878;2023-11-21T12:14:22;95974.91;;;15.11;39.44
44079;BME280;29744;49.078;12.878;2023-11-21T12:19:23;95981.09;;;15.11;38.88
44079;BME280;29744;49.078;12.878;2023-11-21T12:24:23;95978.41;;;15.11;39.34
44079;BME280;29744;49.078;12.878;2023-11-21T12:29:24;95980.31;;;15.11;39.18
44079;BME280;29744;49.078;12.878;2023-11-21T12:34:24;95977.59;;;15.11;39.42
44079;BME280;29744;49.078;12.878;2023-11-21T12:39:24;95975.69;;;15.11;38.92
44079;BME280;29744;49.078;12.878;2023-11-21T12:44:25;95983.00;;;15.11;39.60
44079;BME280;29744;49.078;12.878;2023-11-21T12:49:25;95984.13;;;15.10;39.38
44079;BME280;29744;49.078;12.878;2023-11-21T12:54:25;95979.84;;;15.09;39.29
44079;BME280;29744;49.078;12.878;2023-11-21T12:59:26;95982.91;;;15.07;39.41
44079;BME280;29744;49.078;12.878;2023-11-21T13:04:31;95993.69;;;15.07;39.26
44079;BME280;29744;49.078;12.878;2023-11-21T13:09:31;95984.03;;;15.06;39.23
44079;BME280;29744;49.078;12.878;2023-11-21T13:14:34;95995.16;;;15.05;39.46
44079;BME280;29744;49.078;12.878;2023-11-21T13:19:34;95996.63;;;15.02;39.29
44079;BME280;29744;49.078;12.878;2023-11-21T13:24:34;96008.50;;;15.01;39.26
44079;BME280;29744;49.078;12.878;2023-11-21T13:29:35;96010.75;;;14.99;39.37
44079;BME280;29744;49.078;12.878;2023-11-21T13:34:35;96017.63;;;14.97;39.64
44079;BME280;29744;49.078;12.878;2023-11-21T13:39:37;96022.25;;;14.96;39.87
44079;BME280;29744;49.078;12.878;2023-11-21T13:44:38;96022.56;;;14.95;39.74
44079;BME280;29744;49.078;12.878;2023-11-21T13:49:44;96023.25;;;14.92;40.03
44079;BME280;29744;49.078;12.878;2023-11-21T13:54:44;96025.94;;;14.92;39.91
44079;BME280;29744;49.078;12.878;2023-11-21T13:59:44;96029.44;;;14.92;39.85
44079;BME280;29744;49.078;12.878;2023-11-21T14:04:45;96027.06;;;14.91;39.81
44079;BME280;29744;49.078;12.878;2023-11-21T14:09:56;96033.59;;;14.90;39.49
44079;BME280;29744;49.078;12.878;2023-11-21T14:14:56;96039.31;;;14.88;39.72
44079;BME280;29744;49.078;12.878;2023-11-21T14:19:56;96045.50;;;14.89;39.62
44079;BME280;29744;49.078;12.878;2023-11-21T14:24:57;96042.47;;;14.90;39.51
44079;BME280;29744;49.078;12.878;2023-11-21T14:30:00;96044.06;;;14.91;39.82
44079;BME280;29744;49.078;12.878;2023-11-21T14:35:00;96043.06;;;14.96;39.61
44079;BME280;29744;49.078;12.878;2023-11-21T14:40:00;96051.59;;;14.98;39.94
44079;BME280;29744;49.078;12.878;2023-11-21T14:45:01;96053.19;;;14.99;40.00
44079;BME280;29744;49.078;12.878;2023-11-21T14:50:06;96057.47;;;15.00;39.56
44079;BME280;29744;49.078;12.878;2023-11-21T14:55:26;96056.66;;;14.99;39.84
44079;BME280;29744;49.078;12.878;2023-11-21T15:00:32;96063.19;;;14.98;39.79
44079;BME280;29744;49.078;12.878;2023-11-21T15:05:35;96072.75;;;14.96;39.92
44079;BME280;29744;49.078;12.878;2023-11-21T15:10:36;96078.81;;;14.93;39.87
44079;BME280;29744;49.078;12.878;2023-11-21T15:15:46;96073.75;;;14.91;39.84
44079;BME280;29744;49.078;12.878;2023-11-21T15:20:47;96077.13;;;14.88;39.72
44079;BME280;29744;49.078;12.878;2023-11-21T15:25:47;96067.91;;;14.89;39.60
44079;BME280;29744;49.078;12.878;2023-11-21T15:30:47;96079.50;;;14.90;40.00
44079;BME280;29744;49.078;12.878;2023-11-21T15:35:51;96076.78;;;14.90;39.82
44079;BME280;29744;49.078;12.878;2023-11-21T15:40:51;96080.63;;;14.89;39.67
44079;BME280;29744;49.078;12.878;2023-11-21T15:45:52;96076.47;;;14.91;39.64
44079;BME280;29744;49.078;12.878;2023-11-21T15:50:52;96084.56;;;14.91;40.04
44079;BME280;29744;49.078;12.878;2023-11-21T15:55:57;96092.19;;;14.89;39.77
44079;BME280;29744;49.078;12.878;2023-11-21T16:00:57;96097.94;;;14.88;39.59
44079;BME280;29744;49.078;12.878;2023-11-21T16:05:57;96094.78;;;14.86;39.75
44079;BME280;29744;49.078;12.878;2023-11-21T16:10:58;96108.28;;;14.86;39.58
44079;BME280;29744;49.078;12.878;2023-11-21T16:16:00;96110.66;;;14.87;40.14
44079;BME280;29744;49.078;12.878;2023-11-21T16:21:01;96105.25;;;14.87;39.73
44079;BME280;29744;49.078;12.878;2023-11-21T16:26:01;96114.91;;;14.88;40.12
44079;BME280;29744;49.078;12.878;2023-11-21T16:31:02;96122.69;;;14.90;40.14
44079;BME280;29744;49.078;12.878;2023-11-21T16:36:02;96125.50;;;14.93;39.96
44079;BME280;29744;49.078;12.878;2023-11-21T16:41:03;96132.63;;;14.98;39.99
44079;BME280;29744;49.078;12.878;2023-11-21T16:46:06;96135.59;;;15.05;40.10
44079;BME280;29744;49.078;12.878;2023-11-21T16:51:08;96133.47;;;15.10;39.72
44079;BME280;29744;49.078;12.878;2023-11-21T16:56:11;96139.44;;;15.16;39.70
44079;BME280;29744;49.078;12.878;2023-11-21T17:01:12;96150.47;;;15.23;39.88
44079;BME280;29744;49.078;12.878;2023-11-21T17:06:12;96148.34;;;15.29;40.19
44079;BME280;29744;49.078;12.878;2023-11-21T17:11:13;96155.13;;;15.35;40.23
44079;BME280;29744;49.078;12.878;2023-11-21T17:16:14;96168.06;;;15.41;39.80
44079;BME280;29744;49.078;12.878;2023-11-21T17:21:14;96164.38;;;15.46;39.96
44079;BME280;29744;49.078;12.878;2023-11-21T17:26:16;96173.50;;;15.54;39.65
44079;BME280;29744;49.078;12.878;2023-11-21T17:31:17;96175.53;;;15.57;39.59
44079;BME280;29744;49.078;12.878;2023-11-21T17:36:17;96176.88;;;15.63;39.56
44079;BME280;29744;49.078;12.878;2023-11-21T17:41:20;96181.75;;;15.69;39.31
44079;BME280;29744;49.078;12.878;2023-11-21T17:46:22;96185.00;;;15.75;39.62
44079;BME280;29744;49.078;12.878;2023-11-21T17:51:22;96188.31;;;15.81;39.51
44079;BME280;29744;49.078;12.878;2023-11-21T17:56:22;96190.78;;;15.86;39.50
44079;BME280;29744;49.078;12.878;2023-11-21T18:01:23;96188.66;;;15.91;39.15
44079;BME280;29744;49.078;12.878;2023-11-21T18:06:30;96195.75;;;15.96;39.24
44079;BME280;29744;49.078;12.878;2023-11-21T18:11:31;96196.66;;;16.00;39.61
44079;BME280;29744;49.078;12.878;2023-11-21T18:16:31;96203.75;;;16.04;39.45
44079;BME280;29744;49.078;12.878;2023-11-21T18:21:31;96204.66;;;16.08;39.33
44079;BME280;29744;49.078;12.878;2023-11-21T18:26:32;96209.81;;;16.14;38.97
44079;BME280;29744;49.078;12.878;2023-11-21T18:31:32;96213.44;;;16.18;39.22
44079;BME280;29744;49.078;12.878;2023-11-21T18:36:33;96217.03;;;16.22;39.19
44079;BME280;29744;49.078;12.878;2023-11-21T18:41:33;96225.72;;;16.27;39.16
44079;BME280;29744;49.078;12.878;2023-11-21T18:46:40;96221.19;;;16.31;39.08
44079;BME280;29744;49.078;12.878;2023-11-21T18:51:44;96223.22;;;16.34;39.31
44079;BME280;29744;49.078;12.878;2023-11-21T18:56:45;96231.91;;;16.40;39.01
44079;BME280;29744;49.078;12.878;2023-11-21T19:01:45;96235.53;;;16.44;39.25
44079;BME280;29744;49.078;12.878;2023-11-21T19:06:46;96245.34;;;16.49;39.12
44079;BME280;29744;49.078;12.878;2023-11-21T19:11:47;96250.88;;;16.52;39.13
44079;BME280;29744;49.078;12.878;2023-11-21T19:16:47;96249.09;;;16.56;39.06
44079;BME280;29744;49.078;12.878;2023-11-21T19:21:48;96253.13;;;16.62;38.91
44079;BME280;29744;49.078;12.878;2023-11-21T19:26:49;96257.88;;;16.65;38.67
44079;BME280;29744;49.078;12.878;2023-11-21T19:31:49;96276.47;;;16.67;39.00
44079;BME280;29744;49.078;12.878;2023-11-21T19:36:50;96276.59;;;16.70;38.98
44079;BME280;29744;49.078;12.878;2023-11-21T19:41:51;96272.41;;;16.73;38.78
44079;BME280;29744;49.078;12.878;2023-11-21T19:46:52;96277.94;;;16.77;38.40
44079;BME280;29744;49.078;12.878;2023-11-21T19:51:52;96286.50;;;16.79;38.38
44079;BME280;29744;49.078;12.878;2023-11-21T19:56:52;96295.84;;;16.81;38.67
44079;BME280;29744;49.078;12.878;2023-11-21T20:01:53;96304.44;;;16.83;38.97
44079;BME280;29744;49.078;12.878;2023-11-21T20:06:53;96309.94;;;16.87;38.80
44079;BME280;29744;49.078;12.878;2023-11-21T20:11:56;96316.59;;;16.89;38.36
44079;BME280;29744;49.078;12.878;2023-11-21T20:16:58;96314.00;;;16.93;38.70
44079;BME280;29744;49.078;12.878;2023-11-21T20:21:59;96319.88;;;16.95;38.46
44079;BME280;29744;49.078;12.878;2023-11-21T20:26:59;96328.44;;;16.97;38.36
44079;BME280;29744;49.078;12.878;2023-11-21T20:32:03;96334.66;;;16.97;38.69
44079;BME280;29744;49.078;12.878;2023-11-21T20:37:05;96333.53;;;16.98;38.38
44079;BME280;29744;49.078;12.878;2023-11-21T20:42:06;96342.09;;;17.00;38.48
44079;BME280;29744;49.078;12.878;2023-11-21T20:47:06;96333.19;;;17.00;38.39
44079;BME280;29744;49.078;12.878;2023-11-21T20:52:06;96342.88;;;17.01;38.42
44079;BME280;29744;49.078;12.878;2023-11-21T20:57:07;96345.25;;;17.02;38.64
44079;BME280;29744;49.078;12.878;2023-11-21T21:02:09;96349.09;;;17.01;38.45
44079;BME280;29744;49.078;12.878;2023-11-21T21:07:10;96353.72;;;17.01;38.07
44079;BME280;29744;49.078;12.878;2023-11-21T21:12:10;96363.78;;;17.00;38.09
44079;BME280;29744;49.078;12.878;2023-11-21T21:17:11;96367.59;;;16.99;38.45
44079;BME280;29744;49.078;12.878;2023-11-21T21:22:11;96375.28;;;16.97;38.43
44079;BME280;29744;49.078;12.878;2023-11-21T21:27:12;96376.41;;;16.96;38.16
44079;BME280;29744;49.078;12.878;2023-11-21T21:32:12;96378.66;;;16.94;38.11
44079;BME280;29744;49.078;12.878;2023-11-21T21:37:13;96387.13;;;16.93;38.42
44079;BME280;29744;49.078;12.878;2023-11-21T21:42:13;96388.63;;;16.90;38.37
44079;BME280;29744;49.078;12.878;2023-11-21T21:47:14;96401.69;;;16.88;38.34
44079;BME280;29744;49.078;12.878;2023-11-21T21:52:14;96407.47;;;16.87;38.08
44079;BME280;29744;49.078;12.878;2023-11-21T21:57:14;96410.06;;;16.83;38.33
44079;BME280;29744;49.078;12.878;2023-11-21T22:02:15;96410.41;;;16.82;38.44
44079;BME280;29744;49.078;12.878;2023-11-21T22:07:15;96424.28;;;16.80;38.57
44079;BME280;29744;49.078;12.878;2023-11-21T22:12:15;96429.56;;;16.77;38.45
44079;BME280;29744;49.078;12.878;2023-11-21T22:17:16;96439.16;;;16.74;38.57
44079;BME280;29744;49.078;12.878;2023-11-21T22:22:16;96428.69;;;16.72;38.51
44079;BME280;29744;49.078;12.878;2023-11-21T22:27:17;96440.63;;;16.71;38.38
44079;BME280;29744;49.078;12.878;2023-11-21T22:32:18;96438.59;;;16.68;38.16
44079;BME280;29744;49.078;12.878;2023-11-21T22:37:19;96434.31;;;16.67;38.43
44079;BME280;29744;49.078;12.878;2023-11-21T22:42:19;96445.03;;;16.64;38.22
44079;BME280;29744;49.078;12.878;2023-11-21T22:47:20;96453.03;;;16.60;38.33
44079;BME280;29744;49.078;12.878;2023-11-21T22:52:21;96457.53;;;16.56;38.37
44079;BME280;29744;49.078;12.878;2023-11-21T22:57:23;96459.31;;;16.52;38.45
44079;BME280;29744;49.078;12.878;2023-11-21T23:02:23;96467.31;;;16.49;38.72
44079;BME280;29744;49.078;12.878;2023-11-21T23:07:24;96463.69;;;16.45;38.98
44079;BME280;29744;49.078;12.878;2023-11-21T23:12:24;96468.97;;;16.41;38.95
44079;BME280;29744;49.078;12.878;2023-11-21T23:17:25;96466.91;;;16.38;38.58
44079;BME280;29744;49.078;12.878;2023-11-21T23:22:27;96471.88;;;16.36;38.44
44079;BME280;29744;49.078;12.878;2023-11-21T23:27:28;96465.22;;;16.33;38.83
44079;BME280;29744;49.078;12.878;2023-11-21T23:32:28;96469.38;;;16.31;38.91
44079;BME280;29744;49.078;12.878;2023-11-21T23:37:28;96480.06;;;16.27;38.54
44079;BME280;29744;49.078;12.878;2023-11-21T23:42:29;96475.66;;;16.23;38.73
44079;BME280;29744;49.078;12.878;2023-11-21T23:47:29;96480.28;;;16.22;39.10
44079;BME280;29744;49.078;12.878;2023-11-21T23:52:29;96483.31;;;16.21;38.83
44079;BME280;29744;49.078;12.878;2023-11-21T23:57:30;96480.94;;;16.19;38.88
